Time;durP1;ratioP1;P1;durP2;ratioP2;P2;SDS_P1;SDS_P2;PMS_P1;PMS_P2;Temp;Humidity;BMP_temperature;BMP_pressure;BME280_temperature;BME280_humidity;BME280_pressure;Samples;Min_cycle;Max_cycle;Signal;HPM_P1;HPM_P2
2021/03/03 00:02:12;;;;;;;74.30;35.20;;;;;;;;;;5059589;28;38720;-78
2021/03/03 00:04:38;;;;;;;70.17;35.73;;;;;;;;;;5057173;28;37236;-77
2021/03/03 00:07:05;;;;;;;72.00;36.67;;;;;;;;;;5061777;28;36161;-76
2021/03/03 00:09:31;;;;;;;72.00;33.37;;;;;;;;;;5059184;28;39151;-75
2021/03/03 00:11:58;;;;;;;70.90;34.70;;;;;;;;;;5062182;28;38989;-75
2021/03/03 00:14:24;;;;;;;76.73;36.87;;;;;;;;;;5061447;27;40604;-74
2021/03/03 00:16:51;;;;;;;68.13;33.97;;;;;;;;;;5060701;28;36993;-75
2021/03/03 00:19:17;;;;;;;71.03;33.63;;;;;;;;;;5059231;27;39188;-75
2021/03/03 00:21:43;;;;;;;72.20;34.50;;;;;;;;;;5064439;28;39938;-77
2021/03/03 00:24:10;;;;;;;67.77;33.77;;;;;;;;;;5059317;28;38594;-75
2021/03/03 00:26:36;;;;;;;71.20;34.40;;;;;;;;;;5062016;28;37125;-78
2021/03/03 00:29:03;;;;;;;72.77;34.13;;;;;;;;;;5059899;28;40193;-75
2021/03/03 00:31:29;;;;;;;69.87;35.23;;;;;;;;;;5055695;28;46347;-76
2021/03/03 00:33:55;;;;;;;73.97;35.50;;;;;;;;;;5053423;28;39493;-76
2021/03/03 00:36:22;;;;;;;72.10;34.47;;;;;;;;;;5061759;28;37775;-76
2021/03/03 00:38:48;;;;;;;68.33;33.03;;;;;;;;;;5059819;28;39728;-75
2021/03/03 00:41:14;;;;;;;53.03;29.73;;;;;;;;;;5061691;28;38177;-76
2021/03/03 00:43:41;;;;;;;60.07;31.37;;;;;;;;;;5062292;28;38448;-76
2021/03/03 00:46:08;;;;;;;66.73;33.33;;;;;;;;;;5079170;28;38249;-76
2021/03/03 00:48:34;;;;;;;63.33;33.03;;;;;;;;;;5064074;28;39167;-76
2021/03/03 00:51:01;;;;;;;65.33;34.80;;;;;;;;;;5058471;28;39022;-77
2021/03/03 00:53:27;;;;;;;69.37;33.63;;;;;;;;;;5057059;28;47766;-76
2021/03/03 00:55:54;;;;;;;61.97;32.20;;;;;;;;;;5054187;28;37218;-76
2021/03/03 00:58:20;;;;;;;72.40;34.10;;;;;;;;;;5055364;28;39449;-76
2021/03/03 01:00:47;;;;;;;70.17;36.17;;;;;;;;;;5055879;28;38438;-76
2021/03/03 01:03:14;;;;;;;71.13;34.13;;;;;;;;;;5082088;27;39059;-76
2021/03/03 01:05:41;;;;;;;68.00;34.27;;;;;;;;;;5064087;28;37055;-76
2021/03/03 01:08:08;;;;;;;70.80;35.23;;;;;;;;;;5079772;28;40051;-75
2021/03/03 01:10:35;;;;;;;68.03;33.93;;;;;;;;;;5060537;28;38992;-76
2021/03/03 01:13:01;;;;;;;66.87;34.60;;;;;;;;;;5059192;28;37952;-75
2021/03/03 01:15:27;;;;;;;73.90;36.30;;;;;;;;;;5060238;28;48596;-78
2021/03/03 01:17:59;;;;;;;69.60;34.27;;;;;;;;;;5060790;28;38947;-79
2021/03/03 01:20:29;;;;;;;76.38;35.45;;;;;;;;;;5063509;28;39347;-76
2021/03/03 01:22:55;;;;;;;66.83;34.33;;;;;;;;;;5062697;28;39162;-76
2021/03/03 01:25:21;;;;;;;70.70;34.23;;;;;;;;;;5060808;28;37138;-77
2021/03/03 01:27:48;;;;;;;64.27;33.17;;;;;;;;;;5054354;28;39256;-78
2021/03/03 01:30:15;;;;;;;71.97;35.13;;;;;;;;;;5050095;28;38977;-79
2021/03/03 01:32:41;;;;;;;65.27;32.67;;;;;;;;;;5056270;28;38748;-78
2021/03/03 01:35:08;;;;;;;71.37;35.73;;;;;;;;;;5058473;28;35964;-76
2021/03/03 01:37:34;;;;;;;73.27;33.20;;;;;;;;;;5061538;28;39203;-75
2021/03/03 01:40:01;;;;;;;65.07;33.20;;;;;;;;;;5057533;28;39659;-76
2021/03/03 01:42:27;;;;;;;56.27;30.00;;;;;;;;;;5060641;27;38243;-76
2021/03/03 01:44:54;;;;;;;69.43;34.43;;;;;;;;;;5064692;28;37027;-75
2021/03/03 01:47:20;;;;;;;72.37;35.90;;;;;;;;;;5060101;28;37708;-75
2021/03/03 01:49:47;;;;;;;70.13;34.63;;;;;;;;;;5060741;28;38969;-76
2021/03/03 01:52:14;;;;;;;79.60;36.23;;;;;;;;;;5058560;28;39457;-77
2021/03/03 01:54:40;;;;;;;70.60;33.83;;;;;;;;;;5056058;27;37254;-77
2021/03/03 01:57:07;;;;;;;62.27;32.83;;;;;;;;;;5056216;27;38558;-76
2021/03/03 01:59:33;;;;;;;66.97;35.20;;;;;;;;;;5060393;28;39637;-77
2021/03/03 02:02:00;;;;;;;63.70;34.73;;;;;;;;;;5056762;28;38896;-76
2021/03/03 02:04:26;;;;;;;73.77;34.83;;;;;;;;;;5053205;28;37838;-74
2021/03/03 02:06:56;;;;;;;66.47;34.03;;;;;;;;;;5064526;28;38601;-76
2021/03/03 02:09:51;;;;;;;65.20;32.93;;;;;;;;;;5062498;28;39000;-75
2021/03/03 02:12:30;;;;;;;69.60;34.27;;;;;;;;;;5044803;28;39734;-76
2021/03/03 02:15:02;;;;;;;81.07;37.30;;;;;;;;;;5058830;28;37362;-78
2021/03/03 02:17:30;;;;;;;72.75;35.90;;;;;;;;;;5056163;28;47317;-75
2021/03/03 02:20:00;;;;;;;66.73;32.90;;;;;;;;;;5079884;27;38768;-75
2021/03/03 02:22:45;;;;;;;77.20;37.53;;;;;;;;;;5080404;27;39833;-77
2021/03/03 02:25:32;;;;;;;72.30;35.47;;;;;;;;;;5070935;27;37333;-78
2021/03/03 02:28:03;;;;;;;67.47;33.47;;;;;;;;;;5052924;28;40580;-78
2021/03/03 02:30:30;;;;;;;73.77;36.93;;;;;;;;;;5054031;28;46897;-76
2021/03/03 02:32:57;;;;;;;69.23;35.47;;;;;;;;;;5056930;28;39071;-76
2021/03/03 02:35:24;;;;;;;80.80;36.60;;;;;;;;;;5052503;28;35955;-77
2021/03/03 02:37:51;;;;;;;81.13;36.73;;;;;;;;;;5062185;28;38762;-77
2021/03/03 02:40:17;;;;;;;78.03;36.97;;;;;;;;;;5056293;28;39055;-77
2021/03/03 02:42:44;;;;;;;75.23;37.07;;;;;;;;;;5057726;28;35908;-77
2021/03/03 02:45:12;;;;;;;79.83;38.53;;;;;;;;;;5051998;28;36174;-76
2021/03/03 02:47:39;;;;;;;74.37;36.90;;;;;;;;;;5057017;27;39386;-78
2021/03/03 02:50:07;;;;;;;74.83;36.60;;;;;;;;;;5055188;27;38579;-76
2021/03/03 02:52:53;;;;;;;77.27;35.73;;;;;;;;;;5062652;28;38922;-78
2021/03/03 02:55:20;;;;;;;90.87;37.67;;;;;;;;;;5054312;28;36918;-77
2021/03/03 02:57:46;;;;;;;70.47;35.60;;;;;;;;;;5058268;28;39096;-76
2021/03/03 03:00:14;;;;;;;72.67;36.00;;;;;;;;;;5055858;28;40398;-76
2021/03/03 03:02:41;;;;;;;74.33;35.53;;;;;;;;;;5063539;28;35796;-79
2021/03/03 03:05:08;;;;;;;67.67;34.30;;;;;;;;;;5061570;28;38792;-75
2021/03/03 03:07:38;;;;;;;66.50;35.27;;;;;;;;;;5060712;28;39453;-76
2021/03/03 03:10:05;;;;;;;63.33;33.17;;;;;;;;;;5067479;28;38333;-78
2021/03/03 03:12:32;;;;;;;73.73;34.13;;;;;;;;;;5067814;28;37901;-78
2021/03/03 03:14:59;;;;;;;70.17;36.37;;;;;;;;;;5060401;28;37225;-78
2021/03/03 03:17:26;;;;;;;71.97;36.43;;;;;;;;;;5062516;28;37789;-77
2021/03/03 03:19:54;;;;;;;76.00;37.47;;;;;;;;;;5064646;28;39829;-75
2021/03/03 03:22:23;;;;;;;81.13;38.60;;;;;;;;;;5064989;28;38946;-75
2021/03/03 03:24:51;;;;;;;82.83;36.40;;;;;;;;;;5063306;28;37131;-74
2021/03/03 03:27:17;;;;;;;68.60;35.63;;;;;;;;;;5060616;28;39284;-75
2021/03/03 03:29:44;;;;;;;73.57;36.50;;;;;;;;;;5063117;28;38283;-78
2021/03/03 03:32:11;;;;;;;53.70;30.20;;;;;;;;;;5057955;28;38744;-75
2021/03/03 03:34:38;;;;;;;74.23;37.03;;;;;;;;;;5051593;28;37865;-75
2021/03/03 03:37:06;;;;;;;86.63;40.27;;;;;;;;;;5060760;28;38622;-76
2021/03/03 03:39:34;;;;;;;64.53;33.37;;;;;;;;;;5066504;28;38937;-75
2021/03/03 03:42:01;;;;;;;74.77;36.63;;;;;;;;;;5066334;28;38144;-76
2021/03/03 03:44:29;;;;;;;78.43;37.73;;;;;;;;;;5065263;28;47177;-76
2021/03/03 03:46:55;;;;;;;62.97;32.03;;;;;;;;;;5062661;28;38587;-75
2021/03/03 03:49:22;;;;;;;80.20;38.03;;;;;;;;;;5062225;28;39237;-77
2021/03/03 03:51:48;;;;;;;70.20;34.40;;;;;;;;;;5068740;28;38656;-76
2021/03/03 03:54:14;;;;;;;71.87;35.87;;;;;;;;;;5059544;28;35746;-75
2021/03/03 03:56:43;;;;;;;83.03;37.43;;;;;;;;;;5059045;28;39729;-75
2021/03/03 03:59:09;;;;;;;74.53;35.50;;;;;;;;;;5058146;28;39409;-75
2021/03/03 04:01:36;;;;;;;68.40;34.83;;;;;;;;;;5056249;28;38411;-78
2021/03/03 04:04:02;;;;;;;85.83;39.37;;;;;;;;;;5059122;28;39280;-76
2021/03/03 04:06:29;;;;;;;76.17;36.50;;;;;;;;;;5058723;28;39899;-76
2021/03/03 04:08:55;;;;;;;90.53;41.87;;;;;;;;;;5062601;28;39612;-76
2021/03/03 04:11:21;;;;;;;85.50;39.73;;;;;;;;;;5056443;28;38165;-75
2021/03/03 04:13:48;;;;;;;97.83;42.57;;;;;;;;;;5061491;28;37815;-76
2021/03/03 04:16:14;;;;;;;86.23;42.20;;;;;;;;;;5063940;28;38684;-75
2021/03/03 04:18:41;;;;;;;88.50;41.80;;;;;;;;;;5061889;28;38983;-75
2021/03/03 04:21:07;;;;;;;75.27;38.93;;;;;;;;;;5055709;28;40457;-77
2021/03/03 04:23:34;;;;;;;82.87;39.60;;;;;;;;;;5059151;28;37082;-75
2021/03/03 04:26:00;;;;;;;69.40;36.17;;;;;;;;;;5057783;28;39274;-75
2021/03/03 04:28:26;;;;;;;76.03;36.50;;;;;;;;;;5058267;28;39001;-77
2021/03/03 04:30:53;;;;;;;77.53;38.77;;;;;;;;;;5061567;28;39062;-76
2021/03/03 04:33:19;;;;;;;75.70;37.63;;;;;;;;;;5063443;28;37211;-77
2021/03/03 04:35:46;;;;;;;85.87;41.00;;;;;;;;;;5063612;28;38869;-77
2021/03/03 04:38:12;;;;;;;90.87;41.70;;;;;;;;;;5064599;28;38599;-76
2021/03/03 04:40:38;;;;;;;101.63;44.47;;;;;;;;;;5055104;28;37993;-76
2021/03/03 04:43:05;;;;;;;94.43;42.67;;;;;;;;;;5058564;28;37247;-75
2021/03/03 04:45:31;;;;;;;76.23;38.93;;;;;;;;;;5060229;28;38527;-76
2021/03/03 04:47:58;;;;;;;89.37;41.00;;;;;;;;;;5057776;28;38714;-77
2021/03/03 04:50:24;;;;;;;88.80;43.90;;;;;;;;;;5057494;28;39455;-76
2021/03/03 04:52:51;;;;;;;82.03;40.43;;;;;;;;;;5059461;28;36291;-76
2021/03/03 04:55:18;;;;;;;85.30;41.13;;;;;;;;;;5058326;28;40403;-75
2021/03/03 04:57:44;;;;;;;84.20;41.97;;;;;;;;;;5051523;28;39035;-77
2021/03/03 05:00:11;;;;;;;87.73;43.70;;;;;;;;;;5066257;28;38131;-76
2021/03/03 05:02:37;;;;;;;82.57;41.00;;;;;;;;;;5058695;28;35820;-77
2021/03/03 05:05:04;;;;;;;90.80;43.90;;;;;;;;;;5057686;27;38380;-75
2021/03/03 05:07:30;;;;;;;85.33;42.80;;;;;;;;;;5055183;28;48386;-75
2021/03/03 05:09:56;;;;;;;83.27;42.77;;;;;;;;;;5063948;28;39547;-76
2021/03/03 05:12:23;;;;;;;74.53;40.57;;;;;;;;;;5063132;27;36904;-76
2021/03/03 05:14:49;;;;;;;79.63;38.70;;;;;;;;;;5056759;28;39240;-74
2021/03/03 05:17:16;;;;;;;58.67;32.67;;;;;;;;;;5057206;28;38518;-74
2021/03/03 05:19:42;;;;;;;73.47;37.80;;;;;;;;;;5058031;28;37918;-74
2021/03/03 05:22:09;;;;;;;83.97;41.97;;;;;;;;;;5055228;28;38274;-74
2021/03/03 05:24:35;;;;;;;90.73;45.47;;;;;;;;;;5055499;27;38135;-76
2021/03/03 05:27:01;;;;;;;98.77;46.87;;;;;;;;;;5057660;28;39169;-75
2021/03/03 05:29:28;;;;;;;100.77;49.83;;;;;;;;;;5052030;28;48748;-76
2021/03/03 05:31:54;;;;;;;96.13;47.97;;;;;;;;;;5052003;28;39396;-77
2021/03/03 05:34:21;;;;;;;96.80;50.03;;;;;;;;;;5053124;28;40796;-74
2021/03/03 05:36:47;;;;;;;100.97;51.63;;;;;;;;;;5056401;28;39372;-75
2021/03/03 05:39:13;;;;;;;111.63;54.13;;;;;;;;;;5063237;28;38544;-76
2021/03/03 05:41:40;;;;;;;116.93;52.37;;;;;;;;;;5053086;28;37338;-75
2021/03/03 05:44:07;;;;;;;103.90;51.30;;;;;;;;;;5059991;28;40619;-76
2021/03/03 05:46:36;;;;;;;103.30;52.17;;;;;;;;;;5050930;28;39371;-75
2021/03/03 05:49:04;;;;;;;121.07;54.17;;;;;;;;;;5055898;28;38367;-75
2021/03/03 05:51:31;;;;;;;97.53;48.97;;;;;;;;;;5058286;28;37585;-75
2021/03/03 05:54:01;;;;;;;99.97;50.30;;;;;;;;;;5059708;28;40251;-74
2021/03/03 05:56:28;;;;;;;99.43;51.57;;;;;;;;;;5054072;28;48730;-74
2021/03/03 05:58:54;;;;;;;115.07;53.63;;;;;;;;;;5057257;28;37713;-76
2021/03/03 06:01:22;;;;;;;95.80;49.50;;;;;;;;;;5060330;28;36718;-75
2021/03/03 06:03:49;;;;;;;78.53;44.37;;;;;;;;;;5061716;28;39707;-75
2021/03/03 06:06:15;;;;;;;69.77;41.03;;;;;;;;;;5061354;28;38929;-77
2021/03/03 06:08:42;;;;;;;83.90;45.63;;;;;;;;;;5063126;28;38226;-75
2021/03/03 06:11:08;;;;;;;82.47;41.57;;;;;;;;;;5063364;28;37473;-75
2021/03/03 06:13:35;;;;;;;100.93;48.40;;;;;;;;;;5053365;28;39753;-75
2021/03/03 06:16:01;;;;;;;117.47;52.10;;;;;;;;;;5053345;28;39154;-76
2021/03/03 06:18:28;;;;;;;114.77;53.13;;;;;;;;;;5061584;27;48986;-74
2021/03/03 06:20:56;;;;;;;95.13;46.43;;;;;;;;;;5062426;28;35866;-74
2021/03/03 06:23:29;;;;;;;98.43;49.47;;;;;;;;;;5064340;28;40980;-75
2021/03/03 06:25:56;;;;;;;75.40;41.77;;;;;;;;;;5057856;28;38927;-75
2021/03/03 06:28:32;;;;;;;112.30;50.57;;;;;;;;;;5060525;28;38187;-75
2021/03/03 06:30:59;;;;;;;95.57;46.57;;;;;;;;;;5064389;28;37831;-75
2021/03/03 06:33:26;;;;;;;77.93;41.90;;;;;;;;;;5063373;28;39834;-76
2021/03/03 06:35:52;;;;;;;95.07;45.00;;;;;;;;;;5060607;28;39190;-75
2021/03/03 06:38:27;;;;;;;77.07;41.43;;;;;;;;;;5054326;28;39899;-74
2021/03/03 06:40:57;;;;;;;68.17;35.57;;;;;;;;;;5058702;28;38578;-74
2021/03/03 06:43:24;;;;;;;64.57;34.53;;;;;;;;;;5064778;28;38605;-75
2021/03/03 06:45:50;;;;;;;69.17;36.67;;;;;;;;;;5059365;28;39730;-75
2021/03/03 06:48:35;;;;;;;45.50;27.87;;;;;;;;;;5064746;28;40057;-75
2021/03/03 06:51:02;;;;;;;47.83;29.03;;;;;;;;;;5055144;28;38007;-76
2021/03/03 06:53:32;;;;;;;46.07;26.77;;;;;;;;;;5058839;28;39579;-73
2021/03/03 06:55:58;;;;;;;43.77;27.73;;;;;;;;;;5059168;28;39392;-74
2021/03/03 06:58:24;;;;;;;49.13;28.57;;;;;;;;;;5068999;28;38230;-74
2021/03/03 07:00:51;;;;;;;54.60;31.87;;;;;;;;;;5065655;28;37282;-73
2021/03/03 07:03:24;;;;;;;54.50;30.37;;;;;;;;;;5058342;28;38893;-74
2021/03/03 07:05:53;;;;;;;45.93;28.23;;;;;;;;;;5060032;28;37851;-75
2021/03/03 07:08:20;;;;;;;47.90;25.63;;;;;;;;;;5054688;28;38778;-76
2021/03/03 07:10:46;;;;;;;39.13;24.60;;;;;;;;;;5061919;27;36992;-75
2021/03/03 07:13:13;;;;;;;40.03;25.50;;;;;;;;;;5052826;28;39776;-77
2021/03/03 07:15:39;;;;;;;41.83;24.83;;;;;;;;;;5054259;28;38674;-75
2021/03/03 07:18:26;;;;;;;75.23;36.63;;;;;;;;;;5057988;28;38923;-74
2021/03/03 07:20:52;;;;;;;40.20;25.80;;;;;;;;;;5062632;28;37000;-75
2021/03/03 07:23:19;;;;;;;39.97;23.03;;;;;;;;;;5058113;28;39727;-75
2021/03/03 07:25:46;;;;;;;38.63;23.77;;;;;;;;;;5062052;28;38689;-75
2021/03/03 07:28:13;;;;;;;67.93;34.27;;;;;;;;;;5068439;28;38762;-75
2021/03/03 07:30:39;;;;;;;49.37;29.57;;;;;;;;;;5079150;28;36908;-76
2021/03/03 07:33:06;;;;;;;69.57;34.77;;;;;;;;;;5076833;27;39761;-76
2021/03/03 07:35:32;;;;;;;76.10;37.87;;;;;;;;;;5071809;28;37510;-74
2021/03/03 07:38:02;;;;;;;62.20;34.60;;;;;;;;;;5081703;28;38672;-75
2021/03/03 07:40:29;;;;;;;58.33;31.37;;;;;;;;;;5082593;28;48763;-75
2021/03/03 07:42:56;;;;;;;100.90;43.23;;;;;;;;;;5081701;28;40220;-75
2021/03/03 07:45:23;;;;;;;91.13;41.57;;;;;;;;;;5076257;28;39432;-74
2021/03/03 07:47:50;;;;;;;123.13;52.63;;;;;;;;;;5082293;28;38810;-74
2021/03/03 07:50:18;;;;;;;141.93;53.03;;;;;;;;;;5081088;28;38210;-77
2021/03/03 07:52:45;;;;;;;102.30;48.03;;;;;;;;;;5078902;28;39945;-74
2021/03/03 07:55:12;;;;;;;86.23;43.13;;;;;;;;;;5084883;27;38519;-75
2021/03/03 07:57:47;;;;;;;104.20;50.70;;;;;;;;;;5082894;28;38207;-75
2021/03/03 08:00:15;;;;;;;122.53;52.60;;;;;;;;;;5081559;28;37030;-75
2021/03/03 08:02:46;;;;;;;156.43;64.07;;;;;;;;;;5078930;27;39463;-74
2021/03/03 08:05:14;;;;;;;91.03;45.30;;;;;;;;;;5084787;27;38422;-75
2021/03/03 08:07:40;;;;;;;131.43;56.00;;;;;;;;;;5077123;28;38296;-74
2021/03/03 08:10:12;;;;;;;138.60;55.93;;;;;;;;;;5082011;28;37567;-75
2021/03/03 08:12:58;;;;;;;91.30;42.80;;;;;;;;;;5082593;28;40653;-76
2021/03/03 08:15:42;;;;;;;81.20;41.97;;;;;;;;;;5078886;28;38161;-74
2021/03/03 08:18:15;;;;;;;134.90;53.20;;;;;;;;;;5081043;27;39055;-76
2021/03/03 08:20:42;;;;;;;128.90;51.67;;;;;;;;;;5074134;28;38712;-77
2021/03/03 08:23:09;;;;;;;141.43;57.17;;;;;;;;;;5055736;28;40860;-74
2021/03/03 08:25:47;;;;;;;99.13;44.13;;;;;;;;;;5061287;28;38931;-74
2021/03/03 08:28:30;;;;;;;81.87;43.73;;;;;;;;;;5061813;28;38976;-73
2021/03/03 08:31:05;;;;;;;296.87;65.03;;;;;;;;;;5063009;28;38766;-76
2021/03/03 08:33:32;;;;;;;142.50;55.07;;;;;;;;;;5063410;28;48337;-76
2021/03/03 08:35:58;;;;;;;314.10;75.53;;;;;;;;;;5069445;28;39263;-74
2021/03/03 08:38:24;;;;;;;234.53;70.83;;;;;;;;;;5058385;28;38767;-76
2021/03/03 08:40:51;;;;;;;88.60;45.70;;;;;;;;;;5062251;27;36982;-73
2021/03/03 08:43:37;;;;;;;188.33;65.97;;;;;;;;;;5061281;28;40962;-76
2021/03/03 08:46:23;;;;;;;259.63;71.67;;;;;;;;;;5060585;28;38317;-74
2021/03/03 08:48:52;;;;;;;132.30;54.77;;;;;;;;;;5079392;28;38319;-75
2021/03/03 08:51:25;;;;;;;102.20;49.30;;;;;;;;;;5077631;28;36959;-75
2021/03/03 08:53:55;;;;;;;150.10;58.20;;;;;;;;;;5094205;28;37369;-75
2021/03/03 08:56:38;;;;;;;173.80;63.27;;;;;;;;;;5079851;27;39841;-76
2021/03/03 08:59:07;;;;;;;173.17;61.67;;;;;;;;;;5064311;28;37532;-75
2021/03/03 09:01:55;;;;;;;133.97;57.77;;;;;;;;;;5057225;28;47634;-76
2021/03/03 09:04:28;;;;;;;183.70;67.47;;;;;;;;;;5073172;28;39332;-76
2021/03/03 09:06:57;;;;;;;215.85;72.18;;;;;;;;;;5056450;28;39252;-76
2021/03/03 09:09:24;;;;;;;156.90;61.30;;;;;;;;;;5058560;28;37481;-76
2021/03/03 09:11:57;;;;;;;156.37;63.20;;;;;;;;;;5054480;28;37596;-75
2021/03/03 09:14:24;;;;;;;188.70;68.13;;;;;;;;;;5057890;28;39091;-74
2021/03/03 09:16:55;;;;;;;172.40;65.70;;;;;;;;;;5067165;28;38504;-75
2021/03/03 09:19:22;;;;;;;181.80;70.43;;;;;;;;;;5084641;28;39914;-75
2021/03/03 09:21:48;;;;;;;191.77;71.57;;;;;;;;;;5084918;28;37298;-75
2021/03/03 09:24:15;;;;;;;161.27;68.73;;;;;;;;;;5061633;28;39609;-77
2021/03/03 09:26:43;;;;;;;163.93;66.00;;;;;;;;;;5069612;28;38551;-74
2021/03/03 09:29:33;;;;;;;162.73;66.47;;;;;;;;;;5067420;28;38023;-74
2021/03/03 09:32:04;;;;;;;175.80;68.67;;;;;;;;;;5063219;28;38417;-73
2021/03/03 09:34:32;;;;;;;142.20;59.17;;;;;;;;;;5063164;28;47176;-74
2021/03/03 09:37:00;;;;;;;156.70;64.13;;;;;;;;;;5048086;28;38981;-75
2021/03/03 09:39:28;;;;;;;136.67;61.53;;;;;;;;;;5074998;28;48334;-74
2021/03/03 09:41:59;;;;;;;139.67;59.53;;;;;;;;;;5083341;28;37739;-74
2021/03/03 09:44:25;;;;;;;136.80;59.13;;;;;;;;;;5078393;27;38126;-75
2021/03/03 09:46:52;;;;;;;144.73;62.10;;;;;;;;;;5061098;28;38419;-74
2021/03/03 09:49:26;;;;;;;132.33;61.20;;;;;;;;;;5078821;28;39119;-75
2021/03/03 09:51:53;;;;;;;142.17;63.63;;;;;;;;;;5064173;28;37435;-74
2021/03/03 09:54:28;;;;;;;138.53;64.07;;;;;;;;;;5055164;28;38436;-76
2021/03/03 09:56:55;;;;;;;106.27;52.43;;;;;;;;;;5051952;28;39246;-75
2021/03/03 09:59:21;;;;;;;91.77;51.83;;;;;;;;;;5071004;28;39066;-76
2021/03/03 10:01:48;;;;;;;101.70;52.53;;;;;;;;;;5077135;28;37703;-75
2021/03/03 10:04:15;;;;;;;82.97;48.97;;;;;;;;;;5080535;28;39209;-74
2021/03/03 10:06:41;;;;;;;104.67;54.40;;;;;;;;;;5079221;28;37582;-74
2021/03/03 10:09:08;;;;;;;97.80;55.83;;;;;;;;;;5080889;27;38183;-73
2021/03/03 10:11:34;;;;;;;104.30;58.57;;;;;;;;;;5082544;28;36160;-73
2021/03/03 10:14:04;;;;;;;101.13;56.20;;;;;;;;;;5071607;28;37811;-74
2021/03/03 10:16:31;;;;;;;102.73;59.50;;;;;;;;;;5080313;28;47090;-73
2021/03/03 10:19:04;;;;;;;90.20;53.63;;;;;;;;;;5080621;28;37877;-75
2021/03/03 10:21:31;;;;;;;99.00;55.20;;;;;;;;;;5082761;28;49160;-75
2021/03/03 10:23:58;;;;;;;81.70;51.47;;;;;;;;;;5073501;28;37526;-75
2021/03/03 10:26:43;;;;;;;78.23;49.33;;;;;;;;;;5083631;28;37518;-75
2021/03/03 10:29:09;;;;;;;80.67;52.50;;;;;;;;;;5076874;28;38560;-74
2021/03/03 10:31:36;;;;;;;81.40;50.00;;;;;;;;;;5083077;28;36065;-75
2021/03/03 10:34:12;;;;;;;78.53;48.10;;;;;;;;;;5078435;28;37706;-75
2021/03/03 10:36:42;;;;;;;76.83;48.93;;;;;;;;;;5063986;28;38012;-76
2021/03/03 10:39:09;;;;;;;78.47;48.67;;;;;;;;;;5079161;27;39299;-74
2021/03/03 10:41:36;;;;;;;79.13;50.27;;;;;;;;;;5074446;28;37086;-76
2021/03/03 10:44:06;;;;;;;87.63;53.70;;;;;;;;;;5069180;28;38874;-76
2021/03/03 10:46:33;;;;;;;84.17;49.83;;;;;;;;;;5072330;27;38767;-75
2021/03/03 10:49:13;;;;;;;81.40;49.73;;;;;;;;;;5073626;27;38305;-75
2021/03/03 10:51:40;;;;;;;97.77;57.53;;;;;;;;;;5076159;28;50068;-75
2021/03/03 10:54:07;;;;;;;92.87;55.47;;;;;;;;;;5079879;28;39274;-75
2021/03/03 10:56:35;;;;;;;85.77;55.40;;;;;;;;;;5084195;28;38551;-76
2021/03/03 10:59:11;;;;;;;86.17;53.47;;;;;;;;;;5081437;28;38842;-75
2021/03/03 11:01:46;;;;;;;84.47;51.90;;;;;;;;;;5099773;27;37176;-74
2021/03/03 11:04:13;;;;;;;81.22;50.88;;;;;;;;;;5080062;28;37804;-75
2021/03/03 11:06:40;;;;;;;85.47;53.50;;;;;;;;;;5080952;28;37398;-75
2021/03/03 11:09:10;;;;;;;85.05;53.95;;;;;;;;;;5070441;28;37637;-75
2021/03/03 11:11:48;;;;;;;86.67;56.17;;;;;;;;;;5077638;28;37379;-75
2021/03/03 11:14:14;;;;;;;79.22;52.22;;;;;;;;;;5088456;27;40033;-75
2021/03/03 11:16:43;;;;;;;83.13;52.85;;;;;;;;;;5078973;28;38731;-75
2021/03/03 11:19:10;;;;;;;82.32;52.47;;;;;;;;;;5080631;28;38356;-75
2021/03/03 11:21:36;;;;;;;77.32;53.28;;;;;;;;;;5085353;28;37259;-74
2021/03/03 11:24:02;;;;;;;86.30;52.87;;;;;;;;;;5079628;27;37889;-75
2021/03/03 11:26:29;;;;;;;76.85;50.85;;;;;;;;;;5094341;27;38245;-77
2021/03/03 11:28:55;;;;;;;84.45;54.08;;;;;;;;;;5094289;27;37088;-75
2021/03/03 11:31:22;;;;;;;85.97;53.22;;;;;;;;;;5082308;28;35932;-75
2021/03/03 11:33:48;;;;;;;84.60;54.25;;;;;;;;;;5082276;28;38078;-76
2021/03/03 11:36:15;;;;;;;77.68;50.58;;;;;;;;;;5076083;28;39526;-76
2021/03/03 11:38:41;;;;;;;87.53;53.67;;;;;;;;;;5056051;28;37035;-75
2021/03/03 11:41:08;;;;;;;81.38;52.95;;;;;;;;;;5059880;28;36231;-76
2021/03/03 11:43:34;;;;;;;82.68;55.47;;;;;;;;;;5059832;28;39788;-76
2021/03/03 11:46:00;;;;;;;80.85;52.40;;;;;;;;;;5062545;27;38576;-74
2021/03/03 11:48:27;;;;;;;84.55;55.63;;;;;;;;;;5056461;28;39132;-75
2021/03/03 11:50:53;;;;;;;83.57;56.13;;;;;;;;;;5060323;28;37969;-74
2021/03/03 11:53:19;;;;;;;77.72;50.92;;;;;;;;;;5061895;28;39072;-74
2021/03/03 11:55:46;;;;;;;82.22;52.90;;;;;;;;;;5065487;28;38520;-74
2021/03/03 11:58:12;;;;;;;86.60;54.83;;;;;;;;;;5059494;28;39058;-76
2021/03/03 12:00:39;;;;;;;79.38;50.20;;;;;;;;;;5065674;28;38859;-74
2021/03/03 12:03:05;;;;;;;71.90;48.97;;;;;;;;;;5080463;27;39058;-75
2021/03/03 12:05:31;;;;;;;75.60;49.47;;;;;;;;;;5073679;28;38400;-77
2021/03/03 12:07:58;;;;;;;71.00;48.67;;;;;;;;;;5068315;28;38392;-77
2021/03/03 12:10:24;;;;;;;72.82;47.30;;;;;;;;;;5072373;28;37833;-76
2021/03/03 12:12:51;;;;;;;73.43;48.13;;;;;;;;;;5081956;28;38742;-76
2021/03/03 12:15:17;;;;;;;75.72;49.95;;;;;;;;;;5069983;28;40092;-76
2021/03/03 12:17:44;;;;;;;69.45;47.40;;;;;;;;;;5085319;28;38418;-76
2021/03/03 12:20:11;;;;;;;68.95;47.53;;;;;;;;;;5085572;28;37870;-76
2021/03/03 12:22:37;;;;;;;71.95;46.63;;;;;;;;;;5082488;28;40145;-73
2021/03/03 12:25:04;;;;;;;73.68;49.33;;;;;;;;;;5074375;28;39080;-74
2021/03/03 12:27:31;;;;;;;70.90;47.08;;;;;;;;;;5079436;28;48521;-74
2021/03/03 12:29:57;;;;;;;72.82;46.50;;;;;;;;;;5076805;28;36992;-74
2021/03/03 12:32:23;;;;;;;73.45;48.13;;;;;;;;;;5077493;28;39690;-75
2021/03/03 12:34:50;;;;;;;76.40;49.80;;;;;;;;;;5083792;28;38338;-74
2021/03/03 12:37:16;;;;;;;71.65;46.67;;;;;;;;;;5083065;28;38801;-75
2021/03/03 12:39:42;;;;;;;74.85;47.28;;;;;;;;;;5083613;28;38056;-76
2021/03/03 12:42:09;;;;;;;73.65;47.00;;;;;;;;;;5082289;27;38971;-75
2021/03/03 12:44:35;;;;;;;74.50;48.80;;;;;;;;;;5083003;28;37192;-75
2021/03/03 12:47:02;;;;;;;72.15;48.28;;;;;;;;;;5083670;27;39044;-75
2021/03/03 12:49:28;;;;;;;69.40;46.38;;;;;;;;;;5083609;28;48497;-76
2021/03/03 12:51:54;;;;;;;67.53;46.15;;;;;;;;;;5070886;28;39654;-76
2021/03/03 12:54:21;;;;;;;69.40;45.63;;;;;;;;;;5080893;27;39249;-75
2021/03/03 12:56:47;;;;;;;76.20;47.83;;;;;;;;;;5079646;28;39341;-75
2021/03/03 12:59:14;;;;;;;71.07;48.63;;;;;;;;;;5082935;28;37214;-74
2021/03/03 13:01:40;;;;;;;72.90;49.83;;;;;;;;;;5097694;27;37557;-74
2021/03/03 13:04:06;;;;;;;67.32;46.33;;;;;;;;;;5063782;27;39332;-76
2021/03/03 13:06:33;;;;;;;67.68;46.97;;;;;;;;;;5061285;28;38700;-74
2021/03/03 13:08:59;;;;;;;72.10;47.00;;;;;;;;;;5065146;28;37126;-74
2021/03/03 13:11:26;;;;;;;72.30;49.35;;;;;;;;;;5061716;28;39757;-74
2021/03/03 13:13:52;;;;;;;70.63;46.13;;;;;;;;;;5060220;28;40104;-74
2021/03/03 13:16:19;;;;;;;74.38;50.47;;;;;;;;;;5051541;28;38295;-76
2021/03/03 13:18:45;;;;;;;73.45;48.25;;;;;;;;;;5062370;28;37756;-74
2021/03/03 13:21:13;;;;;;;70.53;47.63;;;;;;;;;;5057950;28;39315;-74
2021/03/03 13:23:39;;;;;;;65.85;46.58;;;;;;;;;;5059559;28;38336;-75
2021/03/03 13:26:06;;;;;;;75.60;49.83;;;;;;;;;;5062053;28;38491;-74
2021/03/03 13:28:32;;;;;;;69.32;48.30;;;;;;;;;;5063918;28;37398;-74
2021/03/03 13:30:59;;;;;;;66.28;47.83;;;;;;;;;;5082453;28;39305;-75
2021/03/03 13:33:25;;;;;;;65.72;45.17;;;;;;;;;;5072412;28;38661;-74
2021/03/03 13:35:52;;;;;;;67.32;45.95;;;;;;;;;;5083450;28;39453;-75
2021/03/03 13:38:18;;;;;;;72.25;49.88;;;;;;;;;;5078407;28;36047;-75
2021/03/03 13:40:44;;;;;;;73.07;48.40;;;;;;;;;;5077795;28;39591;-75
2021/03/03 13:43:11;;;;;;;73.15;49.50;;;;;;;;;;5071726;28;37384;-76
2021/03/03 13:45:38;;;;;;;68.40;47.38;;;;;;;;;;5083021;28;38505;-75
2021/03/03 13:48:04;;;;;;;71.22;49.47;;;;;;;;;;5069999;28;38305;-75
2021/03/03 13:50:31;;;;;;;76.20;47.53;;;;;;;;;;5061012;28;39473;-75
2021/03/03 13:52:57;;;;;;;73.90;48.15;;;;;;;;;;5076637;28;39057;-75
2021/03/03 13:55:23;;;;;;;81.13;49.42;;;;;;;;;;5081210;27;37700;-75
2021/03/03 13:57:50;;;;;;;70.03;47.10;;;;;;;;;;5083243;27;37648;-75
2021/03/03 14:00:17;;;;;;;74.90;49.75;;;;;;;;;;5080127;28;39145;-76
2021/03/03 14:02:43;;;;;;;69.43;45.72;;;;;;;;;;5073036;28;39829;-75
2021/03/03 14:05:10;;;;;;;73.32;48.30;;;;;;;;;;5085477;28;38612;-75
2021/03/03 14:07:36;;;;;;;70.00;45.50;;;;;;;;;;5059383;28;38793;-74
2021/03/03 14:10:04;;;;;;;72.30;46.47;;;;;;;;;;5058360;27;38628;-74
2021/03/03 14:12:30;;;;;;;72.85;48.10;;;;;;;;;;5063892;28;38714;-75
2021/03/03 14:14:57;;;;;;;73.20;46.75;;;;;;;;;;5058024;28;39158;-74
2021/03/03 14:17:23;;;;;;;76.18;48.03;;;;;;;;;;5060816;28;39098;-75
2021/03/03 14:19:50;;;;;;;72.82;44.83;;;;;;;;;;5059565;28;39612;-75